createdAt,value
2022-12-07T00:02:21.002Z,6.78
2022-12-07T00:04:47.482Z,10.75
2022-12-07T00:07:13.958Z,7.45
2022-12-07T00:09:42.547Z,8.90
2022-12-07T00:12:09.057Z,7.90
2022-12-07T00:14:35.503Z,8.43
2022-12-07T00:17:02.109Z,5.53
2022-12-07T00:19:28.642Z,7.85
2022-12-07T00:21:55.108Z,8.73
2022-12-07T00:24:22.024Z,7.05
2022-12-07T00:26:48.494Z,6.75
2022-12-07T00:29:19.678Z,6.90
2022-12-07T00:31:46.417Z,6.88
2022-12-07T00:34:14.865Z,6.32
2022-12-07T00:36:41.305Z,6.38
2022-12-07T00:39:07.794Z,6.30
2022-12-07T00:41:34.246Z,6.43
2022-12-07T00:44:00.702Z,5.90
2022-12-07T00:46:27.399Z,6.00
2022-12-07T00:48:54.114Z,6.80
2022-12-07T00:51:22.190Z,5.32
2022-12-07T00:53:48.750Z,6.68
2022-12-07T00:56:16.950Z,5.47
2022-12-07T00:58:43.413Z,6.22
2022-12-07T01:01:10.326Z,6.13
2022-12-07T01:03:36.989Z,6.10
2022-12-07T01:06:03.694Z,5.07
2022-12-07T01:08:30.226Z,5.90
2022-12-07T01:11:06.656Z,4.80
2022-12-07T01:13:33.901Z,5.00
2022-12-07T01:16:01.425Z,3.70
2022-12-07T01:18:28.567Z,5.03
2022-12-07T01:21:19.250Z,4.80
2022-12-07T01:23:45.718Z,3.75
2022-12-07T01:26:13.576Z,3.85
2022-12-07T01:28:40.042Z,3.22
2022-12-07T01:31:08.304Z,3.35
2022-12-07T01:33:36.203Z,3.25
2022-12-07T01:36:15.768Z,4.47
2022-12-07T01:38:42.273Z,4.28
2022-12-07T01:41:08.787Z,3.17
2022-12-07T01:43:35.592Z,2.88
2022-12-07T01:46:02.878Z,3.22
2022-12-07T01:48:35.668Z,3.35
2022-12-07T01:51:04.774Z,3.03
2022-12-07T01:53:31.258Z,3.45
2022-12-07T01:55:57.705Z,3.50
2022-12-07T01:58:24.453Z,2.72
2022-12-07T02:00:50.932Z,3.65
2022-12-07T02:03:25.197Z,4.50
2022-12-07T02:05:51.649Z,2.67
2022-12-07T02:08:18.204Z,3.22
2022-12-07T02:10:44.759Z,3.55
2022-12-07T02:13:17.564Z,3.80
2022-12-07T02:15:50.445Z,3.03
2022-12-07T02:18:26.152Z,3.30
2022-12-07T02:21:08.259Z,2.72
2022-12-07T02:23:42.904Z,2.72
2022-12-07T02:26:36.974Z,2.40
2022-12-07T02:29:12.251Z,2.80
2022-12-07T02:31:42.459Z,2.53
2022-12-07T02:34:10.752Z,2.25
2022-12-07T02:36:42.868Z,2.85
2022-12-07T02:39:40.224Z,2.47
2022-12-07T02:42:20.424Z,2.72
2022-12-07T02:44:47.001Z,2.80
2022-12-07T02:47:15.058Z,2.60
2022-12-07T02:49:41.503Z,2.15
2022-12-07T02:52:08.003Z,2.42
2022-12-07T02:54:34.460Z,1.90
2022-12-07T02:57:29.179Z,2.53
2022-12-07T03:02:49.242Z,1.83
2022-12-07T03:05:43.821Z,1.90
2022-12-07T03:08:34.428Z,1.85
2022-12-07T03:11:08.529Z,2.50
2022-12-07T03:16:19.328Z,2.75
2022-12-07T03:18:47.500Z,1.83
2022-12-07T03:21:16.744Z,1.42
2022-12-07T03:23:43.563Z,2.22
2022-12-07T03:26:10.366Z,1.60
2022-12-07T03:28:39.245Z,2.17
2022-12-07T03:31:11.419Z,1.70
2022-12-07T03:33:41.325Z,1.58
2022-12-07T03:36:10.398Z,2.40
2022-12-07T03:38:43.300Z,3.17
2022-12-07T03:41:12.961Z,6.75
2022-12-07T03:43:40.183Z,12.13
2022-12-07T03:46:29.493Z,11.02
2022-12-07T03:49:15.228Z,6.22
2022-12-07T03:51:46.370Z,9.85
2022-12-07T03:54:22.933Z,8.43
2022-12-07T03:56:49.470Z,9.55
2022-12-07T03:59:16.281Z,6.72
2022-12-07T04:01:44.655Z,7.85
2022-12-07T04:04:11.346Z,7.70
2022-12-07T04:06:37.806Z,7.65
2022-12-07T04:09:04.536Z,6.93
2022-12-07T04:11:30.984Z,7.75
2022-12-07T04:14:16.312Z,9.27
2022-12-07T04:16:44.655Z,8.30
2022-12-07T04:19:11.470Z,9.48
2022-12-07T04:21:37.936Z,9.60
2022-12-07T04:24:04.874Z,7.70
2022-12-07T04:26:31.310Z,8.35
2022-12-07T04:28:57.763Z,7.22
2022-12-07T04:31:24.252Z,7.35
2022-12-07T04:33:50.735Z,6.60
2022-12-07T04:36:17.193Z,8.45
2022-12-07T04:38:43.647Z,6.78
2022-12-07T04:41:10.120Z,7.60
2022-12-07T04:43:36.840Z,8.32
2022-12-07T04:46:03.645Z,7.28
2022-12-07T04:48:30.117Z,6.07
2022-12-07T04:50:56.654Z,6.63
2022-12-07T04:53:23.128Z,8.35
2022-12-07T04:55:49.649Z,6.18
2022-12-07T04:58:16.430Z,7.30
2022-12-07T05:00:42.923Z,4.88
2022-12-07T05:03:09.393Z,5.18
2022-12-07T05:05:35.875Z,7.85
2022-12-07T05:08:02.408Z,4.65
2022-12-07T05:10:28.924Z,6.85
2022-12-07T05:12:55.391Z,5.45
2022-12-07T05:15:21.869Z,7.07
2022-12-07T05:17:48.350Z,4.88
2022-12-07T05:20:14.843Z,6.03
2022-12-07T05:22:41.282Z,5.22
2022-12-07T05:25:08.076Z,5.25
2022-12-07T05:27:34.553Z,4.47
2022-12-07T05:30:01.523Z,6.30
2022-12-07T05:32:28.303Z,4.40
2022-12-07T05:34:55.703Z,4.53
2022-12-07T05:37:22.195Z,5.55
2022-12-07T05:39:48.635Z,5.40
2022-12-07T05:42:15.174Z,5.80
2022-12-07T05:44:42.303Z,3.92
2022-12-07T05:47:08.786Z,3.22
2022-12-07T05:49:35.282Z,5.40
2022-12-07T05:52:01.825Z,5.43
2022-12-07T05:54:28.288Z,3.67
2022-12-07T05:56:54.799Z,5.38
2022-12-07T05:59:24.733Z,7.28
2022-12-07T06:01:59.007Z,4.20
2022-12-07T06:04:26.857Z,4.25
2022-12-07T06:06:53.652Z,5.63
2022-12-07T06:09:21.495Z,6.35
2022-12-07T06:12:06.508Z,4.28
2022-12-07T06:14:33.049Z,4.40
2022-12-07T06:16:59.804Z,4.80
2022-12-07T06:19:26.356Z,6.50
2022-12-07T06:21:53.001Z,4.50
2022-12-07T06:24:19.674Z,4.43
2022-12-07T06:26:46.120Z,3.83
2022-12-07T06:29:12.609Z,4.82
2022-12-07T06:31:39.241Z,8.15
2022-12-07T06:34:13.365Z,5.07
2022-12-07T06:39:06.334Z,5.60
2022-12-07T06:41:32.945Z,4.60
2022-12-07T06:43:59.413Z,4.30
2022-12-07T06:46:26.226Z,3.78
2022-12-07T06:48:52.700Z,4.88
2022-12-07T06:51:19.216Z,5.55
2022-12-07T06:53:45.697Z,4.90
2022-12-07T06:56:12.176Z,3.65
2022-12-07T06:58:38.679Z,4.60
2022-12-07T07:01:12.603Z,5.22
2022-12-07T07:03:39.367Z,5.68
2022-12-07T07:06:06.534Z,3.65
2022-12-07T07:08:33.100Z,4.20
2022-12-07T07:10:59.596Z,4.70
2022-12-07T07:13:26.085Z,4.28
2022-12-07T07:15:52.524Z,3.90
2022-12-07T07:18:19.001Z,3.85
2022-12-07T07:20:45.446Z,3.55
2022-12-07T07:23:11.908Z,4.32
2022-12-07T07:25:38.383Z,3.78
2022-12-07T07:28:04.999Z,4.18
2022-12-07T07:30:31.624Z,4.22
2022-12-07T07:32:59.190Z,5.60
2022-12-07T07:35:26.670Z,3.88
2022-12-07T07:37:53.128Z,3.20
2022-12-07T07:40:19.597Z,2.50
2022-12-07T07:42:51.447Z,2.85
2022-12-07T07:45:18.807Z,4.10
2022-12-07T07:47:45.294Z,3.78
2022-12-07T07:50:11.881Z,3.08
2022-12-07T07:52:38.366Z,3.15
2022-12-07T07:55:05.333Z,2.85
2022-12-07T07:57:31.786Z,2.75
2022-12-07T07:59:58.282Z,3.33
2022-12-07T08:02:24.822Z,2.22
2022-12-07T08:04:51.366Z,2.92
2022-12-07T08:07:17.840Z,3.22
2022-12-07T08:09:44.312Z,2.88
2022-12-07T08:12:10.763Z,4.15
2022-12-07T08:14:37.257Z,2.33
2022-12-07T08:17:03.700Z,3.70
2022-12-07T08:19:30.413Z,2.15
2022-12-07T08:21:57.276Z,4.38
2022-12-07T08:24:24.336Z,2.50
2022-12-07T08:26:51.318Z,2.30
2022-12-07T08:29:17.930Z,3.78
2022-12-07T08:31:44.444Z,5.13
2022-12-07T08:34:11.717Z,4.30
2022-12-07T08:36:38.249Z,4.43
2022-12-07T08:41:51.133Z,2.92
2022-12-07T08:44:17.601Z,5.85
2022-12-07T08:47:01.083Z,4.32
2022-12-07T08:49:31.738Z,3.55
2022-12-07T08:51:58.171Z,5.25
2022-12-07T08:54:24.632Z,6.28
2022-12-07T08:56:58.485Z,9.32
2022-12-07T08:59:25.456Z,4.85
2022-12-07T09:01:51.944Z,2.60
2022-12-07T09:04:18.469Z,6.43
2022-12-07T09:06:45.028Z,5.38
2022-12-07T09:09:11.581Z,4.20
2022-12-07T09:11:38.033Z,6.05
2022-12-07T09:14:04.559Z,6.25
2022-12-07T09:16:31.093Z,5.22
2022-12-07T09:18:57.568Z,2.70
2022-12-07T09:21:24.022Z,4.55
2022-12-07T09:23:50.504Z,4.88
2022-12-07T09:26:16.953Z,5.07
2022-12-07T09:28:43.449Z,4.50
2022-12-07T09:31:26.261Z,3.80
2022-12-07T09:34:00.173Z,6.88
2022-12-07T09:36:26.861Z,3.92
2022-12-07T09:38:53.334Z,5.85
2022-12-07T09:41:20.039Z,6.60
2022-12-07T09:43:47.875Z,2.60
2022-12-07T09:46:16.135Z,3.97
2022-12-07T09:48:43.363Z,3.33
2022-12-07T09:51:20.943Z,1.75
2022-12-07T09:53:49.538Z,2.63
2022-12-07T09:56:16.391Z,3.83
2022-12-07T09:58:43.178Z,2.25
2022-12-07T10:01:09.484Z,4.53
2022-12-07T10:03:36.742Z,2.65
2022-12-07T10:06:03.299Z,1.75
2022-12-07T10:08:29.856Z,3.40
2022-12-07T10:10:57.349Z,1.83
2022-12-07T10:13:38.376Z,4.13
2022-12-07T10:16:07.256Z,2.28
2022-12-07T10:18:42.249Z,2.90
2022-12-07T10:21:15.353Z,1.98
2022-12-07T10:23:43.637Z,2.30
2022-12-07T10:26:30.066Z,1.77
2022-12-07T10:28:57.459Z,1.73
2022-12-07T10:31:24.371Z,1.65
2022-12-07T10:33:54.893Z,2.63
2022-12-07T10:36:26.446Z,1.92
2022-12-07T10:39:03.074Z,2.53
2022-12-07T10:41:29.519Z,1.52
2022-12-07T10:43:57.424Z,1.73
2022-12-07T10:46:26.659Z,2.72
2022-12-07T10:49:06.913Z,3.45
2022-12-07T10:51:48.143Z,2.00
2022-12-07T10:54:30.254Z,5.15
2022-12-07T10:57:09.057Z,2.15
2022-12-07T10:59:40.149Z,3.00
2022-12-07T11:02:28.432Z,1.50
2022-12-07T11:05:10.965Z,2.88
2022-12-07T11:07:55.070Z,2.17
2022-12-07T11:10:42.638Z,1.42
2022-12-07T11:13:28.709Z,1.77
2022-12-07T11:16:14.218Z,1.20
2022-12-07T11:18:44.560Z,2.13
2022-12-07T11:21:17.224Z,1.00
2022-12-07T11:23:57.537Z,1.85
2022-12-07T11:26:39.127Z,1.63
2022-12-07T11:29:43.098Z,2.30
2022-12-07T11:32:30.284Z,1.10
2022-12-07T11:35:09.413Z,1.15
2022-12-07T11:40:30.118Z,1.73
2022-12-07T11:43:02.537Z,2.22
2022-12-07T11:45:31.690Z,2.15
2022-12-07T11:48:02.680Z,1.17
2022-12-07T11:50:41.942Z,2.08
2022-12-07T11:53:17.351Z,0.90
2022-12-07T11:55:54.816Z,1.67
2022-12-07T11:58:38.939Z,0.70
2022-12-07T12:01:14.435Z,1.10
2022-12-07T12:04:26.447Z,1.83
2022-12-07T12:06:54.030Z,3.92
2022-12-07T12:09:47.790Z,2.42
2022-12-07T12:15:19.878Z,4.60
2022-12-07T12:18:13.494Z,7.90
2022-12-07T12:21:03.616Z,8.27
2022-12-07T12:23:33.029Z,6.03
2022-12-07T12:26:01.168Z,5.53
2022-12-07T12:28:29.173Z,3.95
2022-12-07T12:31:12.737Z,3.95
2022-12-07T12:33:39.633Z,2.83
2022-12-07T12:36:27.374Z,5.50
2022-12-07T12:38:59.689Z,5.05
2022-12-07T12:41:58.614Z,4.47
2022-12-07T12:44:30.730Z,2.72
2022-12-07T12:47:00.762Z,4.93
2022-12-07T12:49:27.075Z,6.82
2022-12-07T12:51:57.785Z,3.03
2022-12-07T12:54:26.622Z,1.45
2022-12-07T12:57:13.459Z,1.67
2022-12-07T12:59:42.513Z,2.25
2022-12-07T13:02:30.470Z,2.58
2022-12-07T13:04:56.908Z,1.73
2022-12-07T13:07:45.291Z,3.70
2022-12-07T13:10:23.968Z,1.75
2022-12-07T13:12:59.437Z,2.97
2022-12-07T13:15:39.315Z,1.17
2022-12-07T13:18:28.048Z,2.35
2022-12-07T13:21:07.204Z,1.40
2022-12-07T13:23:45.783Z,2.42
2022-12-07T13:26:30.704Z,2.17
2022-12-07T13:29:16.219Z,0.95
2022-12-07T13:31:50.393Z,1.30
2022-12-07T13:34:36.388Z,1.90
2022-12-07T13:37:18.606Z,1.52
2022-12-07T13:39:52.273Z,2.15
2022-12-07T13:42:34.583Z,2.03
2022-12-07T13:45:20.512Z,2.83
2022-12-07T13:47:52.980Z,2.38
2022-12-07T13:50:30.006Z,1.40
2022-12-07T13:52:57.380Z,1.13
2022-12-07T13:55:23.902Z,2.35
2022-12-07T13:57:51.690Z,0.90
2022-12-07T14:00:22.992Z,2.80
2022-12-07T14:03:02.478Z,3.03
2022-12-07T14:05:36.212Z,0.82
2022-12-07T14:08:06.123Z,1.73
2022-12-07T14:10:48.298Z,2.28
2022-12-07T14:13:36.732Z,1.33
2022-12-07T14:16:04.490Z,1.02
2022-12-07T14:18:39.061Z,1.63
2022-12-07T14:21:11.546Z,2.17
2022-12-07T14:23:38.908Z,1.20
2022-12-07T14:26:08.250Z,2.45
2022-12-07T14:28:36.210Z,2.10
2022-12-07T14:31:02.939Z,1.88
2022-12-07T14:33:29.547Z,1.65
2022-12-07T14:35:56.673Z,1.80
2022-12-07T14:38:23.342Z,1.35
2022-12-07T14:40:49.808Z,1.95
2022-12-07T14:43:17.030Z,1.80
2022-12-07T14:45:43.637Z,0.80
2022-12-07T14:53:55.057Z,1.27
2022-12-07T14:56:23.813Z,1.25
2022-12-07T14:58:50.350Z,1.77
2022-12-07T15:01:16.842Z,1.08
2022-12-07T15:03:43.376Z,1.25
2022-12-07T15:06:11.604Z,1.15
2022-12-07T15:08:38.066Z,0.68
2022-12-07T15:11:04.588Z,1.77
2022-12-07T15:13:49.629Z,1.65
2022-12-07T15:16:18.878Z,0.82
2022-12-07T15:18:53.248Z,0.75
2022-12-07T15:21:31.765Z,0.90
2022-12-07T15:23:58.208Z,1.73
2022-12-07T15:26:24.665Z,1.40
2022-12-07T15:28:51.126Z,0.85
2022-12-07T15:31:53.418Z,2.05
2022-12-07T15:34:04.983Z,2.15
2022-12-07T15:36:32.695Z,1.73
2022-12-07T15:39:14.013Z,1.67
2022-12-07T15:41:40.913Z,2.05
2022-12-07T15:44:30.697Z,1.33
2022-12-07T15:46:57.660Z,2.88
2022-12-07T15:49:24.145Z,2.10
2022-12-07T15:51:50.611Z,1.98
2022-12-07T15:54:20.077Z,1.35
2022-12-07T15:56:46.540Z,1.35
2022-12-07T15:59:13.405Z,1.85
2022-12-07T16:01:39.917Z,0.95
2022-12-07T16:04:06.420Z,1.80
2022-12-07T16:06:32.923Z,2.45
2022-12-07T16:08:59.368Z,1.13
2022-12-07T16:11:25.848Z,5.82
2022-12-07T16:13:52.326Z,5.40
2022-12-07T16:16:19.447Z,14.77
2022-12-07T16:18:46.718Z,13.80
2022-12-07T16:21:13.439Z,9.85
2022-12-07T16:23:39.897Z,10.15
2022-12-07T16:26:11.365Z,10.68
2022-12-07T16:28:37.840Z,7.88
2022-12-07T16:31:15.167Z,8.98
2022-12-07T16:33:43.724Z,7.30
2022-12-07T16:36:10.611Z,7.10
2022-12-07T16:38:37.595Z,5.43
2022-12-07T16:41:04.986Z,6.82
2022-12-07T16:43:31.450Z,7.60
2022-12-07T16:45:57.911Z,8.00
2022-12-07T16:48:24.384Z,6.40
2022-12-07T16:50:51.643Z,8.43
2022-12-07T16:53:18.215Z,6.95
2022-12-07T16:55:45.582Z,5.88
2022-12-07T16:58:13.459Z,9.00
2022-12-07T17:00:40.156Z,7.25
2022-12-07T17:03:06.672Z,6.88
2022-12-07T17:05:33.596Z,5.57
2022-12-07T17:08:00.218Z,6.47
2022-12-07T17:10:26.771Z,9.35
2022-12-07T17:12:53.234Z,6.45
2022-12-07T17:15:21.708Z,6.57
2022-12-07T17:17:53.251Z,5.50
2022-12-07T17:20:20.214Z,7.15
2022-12-07T17:22:46.794Z,5.43
2022-12-07T17:25:13.341Z,6.55
2022-12-07T17:27:39.808Z,6.53
2022-12-07T17:30:06.747Z,5.20
2022-12-07T17:32:33.251Z,4.30
2022-12-07T17:35:01.203Z,4.45
2022-12-07T17:37:27.965Z,5.80
2022-12-07T17:39:58.002Z,6.45
2022-12-07T17:42:37.682Z,5.93
2022-12-07T17:45:05.358Z,5.32
2022-12-07T17:47:32.123Z,4.65
2022-12-07T17:50:03.262Z,5.82
2022-12-07T17:52:52.109Z,4.85
2022-12-07T17:55:18.587Z,4.55
2022-12-07T17:57:45.059Z,5.38
2022-12-07T18:00:12.221Z,11.95
2022-12-07T18:02:39.345Z,4.90
2022-12-07T18:05:06.439Z,3.60
2022-12-07T18:07:32.961Z,8.07
2022-12-07T18:09:59.426Z,5.45
2022-12-07T18:12:25.899Z,5.55
2022-12-07T18:14:54.030Z,5.82
2022-12-07T18:17:20.588Z,5.82
2022-12-07T18:19:47.053Z,7.25
2022-12-07T18:22:13.513Z,5.22
2022-12-07T18:24:39.965Z,6.22
2022-12-07T18:27:06.694Z,5.65
2022-12-07T18:29:33.225Z,4.32
2022-12-07T18:32:00.252Z,8.77
2022-12-07T18:34:29.183Z,4.82
2022-12-07T18:36:55.884Z,6.45
2022-12-07T18:39:22.371Z,5.30
2022-12-07T18:41:48.929Z,5.55
2022-12-07T18:44:16.857Z,3.47
2022-12-07T18:46:43.477Z,4.82
2022-12-07T18:49:11.993Z,4.55
2022-12-07T18:51:38.445Z,9.40
2022-12-07T18:54:05.011Z,6.07
2022-12-07T18:56:31.516Z,4.90
2022-12-07T18:59:22.838Z,5.57
2022-12-07T19:01:53.435Z,4.43
2022-12-07T19:04:20.146Z,6.95
2022-12-07T19:06:47.514Z,3.28
2022-12-07T19:09:13.969Z,4.55
2022-12-07T19:11:49.597Z,3.45
2022-12-07T19:14:36.837Z,4.25
2022-12-07T19:17:06.091Z,4.10
2022-12-07T19:19:37.961Z,3.40
2022-12-07T19:22:05.210Z,4.72
2022-12-07T19:24:31.735Z,2.97
2022-12-07T19:26:58.387Z,3.90
2022-12-07T19:29:24.911Z,4.05
2022-12-07T19:31:51.520Z,2.67
2022-12-07T19:34:18.124Z,2.97
2022-12-07T19:36:44.718Z,2.67
2022-12-07T19:39:14.614Z,2.10
2022-12-07T19:41:43.647Z,5.30
2022-12-07T19:44:14.900Z,4.22
2022-12-07T19:46:41.588Z,3.03
2022-12-07T19:49:08.250Z,4.18
2022-12-07T19:51:34.818Z,3.03
2022-12-07T19:54:01.997Z,1.83
2022-12-07T19:56:29.146Z,5.97
2022-12-07T19:58:55.759Z,2.15
2022-12-07T20:01:22.649Z,2.55
2022-12-07T20:03:49.443Z,2.38
2022-12-07T20:06:18.654Z,3.47
2022-12-07T20:08:45.891Z,3.70
2022-12-07T20:11:31.312Z,4.68
2022-12-07T20:13:58.139Z,2.50
2022-12-07T20:16:25.014Z,2.35
2022-12-07T20:18:57.429Z,1.85
2022-12-07T20:21:24.885Z,2.88
2022-12-07T20:23:52.061Z,2.42
2022-12-07T20:26:18.906Z,2.15
2022-12-07T20:28:46.537Z,1.98
2022-12-07T20:31:16.209Z,4.65
2022-12-07T20:33:45.969Z,3.65
2022-12-07T20:36:13.698Z,6.13
2022-12-07T20:38:40.550Z,5.10
2022-12-07T20:41:08.369Z,5.55
2022-12-07T20:43:35.070Z,3.55
2022-12-07T20:46:01.827Z,6.60
2022-12-07T20:48:28.413Z,5.15
2022-12-07T20:50:54.903Z,3.88
2022-12-07T20:53:21.387Z,5.47
2022-12-07T20:55:47.849Z,6.45
2022-12-07T20:58:14.469Z,8.63
2022-12-07T21:00:41.241Z,5.00
2022-12-07T21:03:07.972Z,5.57
2022-12-07T21:05:35.389Z,8.27
2022-12-07T21:08:02.389Z,7.25
2022-12-07T21:10:29.273Z,7.63
2022-12-07T21:12:56.157Z,7.70
2022-12-07T21:15:22.683Z,7.30
2022-12-07T21:17:49.340Z,5.72
2022-12-07T21:20:16.073Z,6.25
2022-12-07T21:22:43.126Z,76.28
2022-12-07T21:25:09.760Z,55.72
2022-12-07T21:27:36.576Z,31.45
2022-12-07T21:30:03.593Z,21.42
2022-12-07T21:32:30.086Z,20.42
2022-12-07T21:34:56.603Z,16.52
2022-12-07T21:37:23.100Z,21.05
2022-12-07T21:39:49.576Z,20.70
2022-12-07T21:42:16.028Z,23.63
2022-12-07T21:44:42.600Z,20.50
2022-12-07T21:47:09.111Z,21.67
2022-12-07T21:49:36.463Z,15.85
2022-12-07T21:52:03.360Z,18.27
2022-12-07T21:54:29.849Z,17.55
2022-12-07T21:56:56.306Z,18.15
2022-12-07T21:59:22.792Z,13.27
2022-12-07T22:01:49.614Z,12.80
2022-12-07T22:04:18.156Z,15.77
2022-12-07T22:06:44.717Z,13.77
2022-12-07T22:09:11.237Z,13.77
2022-12-07T22:11:37.684Z,14.38
2022-12-07T22:14:23.902Z,12.32
2022-12-07T22:16:51.087Z,12.55
2022-12-07T22:19:17.676Z,13.27
2022-12-07T22:21:44.139Z,11.90
2022-12-07T22:24:10.932Z,13.15
2022-12-07T22:26:37.406Z,12.27
2022-12-07T22:29:03.862Z,10.98
2022-12-07T22:31:30.504Z,13.35
2022-12-07T22:33:57.033Z,11.48
2022-12-07T22:36:23.511Z,12.15
2022-12-07T22:38:49.979Z,10.07
2022-12-07T22:41:24.129Z,8.88
2022-12-07T22:43:50.683Z,9.10
2022-12-07T22:46:17.254Z,9.13
2022-12-07T22:48:43.782Z,7.38
2022-12-07T22:51:26.796Z,6.60
2022-12-07T22:53:53.526Z,7.20
2022-12-07T22:56:20.134Z,7.90
2022-12-07T22:58:46.659Z,7.10
2022-12-07T23:01:14.040Z,7.13
2022-12-07T23:03:40.575Z,6.38
2022-12-07T23:06:09.126Z,8.52
2022-12-07T23:08:35.999Z,7.75
2022-12-07T23:11:02.684Z,6.75
2022-12-07T23:13:32.030Z,6.15
2022-12-07T23:16:13.282Z,5.55
2022-12-07T23:18:40.617Z,6.18
2022-12-07T23:21:07.126Z,7.22
2022-12-07T23:23:33.788Z,5.78
2022-12-07T23:26:07.350Z,6.57
2022-12-07T23:28:34.232Z,6.18
2022-12-07T23:31:08.531Z,6.28
2022-12-07T23:33:35.087Z,4.68
2022-12-07T23:36:27.959Z,7.30
2022-12-07T23:38:55.894Z,5.35
2022-12-07T23:41:24.441Z,5.00
2022-12-07T23:43:51.090Z,6.18
2022-12-07T23:46:19.186Z,6.20
2022-12-07T23:48:46.444Z,4.13
2022-12-07T23:51:13.046Z,5.63
2022-12-07T23:53:41.737Z,4.40
2022-12-07T23:56:11.104Z,5.68
2022-12-07T23:58:37.570Z,4.95
